Time;durP1;ratioP1;P1;durP2;ratioP2;P2;SDS_P1;SDS_P2;PMS_P1;PMS_P2;Temp;Humidity;BMP_temperature;BMP_pressure;BME280_temperature;BME280_humidity;BME280_pressure;Samples;Min_cycle;Max_cycle;Signal;HPM_P1;HPM_P2
2021/09/19 00:03:09;;;;;;;2.88;2.58;;;;;;;13.11;75.08;100577.81;8603364;33;20478;-74
2021/09/19 00:08:13;;;;;;;4.35;2.60;;;;;;;13.14;75.27;100572.13;8603476;33;20631;-73
2021/09/19 00:13:16;;;;;;;3.13;2.55;;;;;;;13.15;75.20;100575.69;8603009;33;20189;-73
2021/09/19 00:18:21;;;;;;;2.67;2.15;;;;;;;13.18;75.41;100570.00;8603238;33;20764;-73
2021/09/19 00:23:24;;;;;;;3.53;2.38;;;;;;;13.18;75.25;100570.00;8603203;33;20203;-73
2021/09/19 00:28:27;;;;;;;4.03;2.42;;;;;;;13.18;75.17;100575.41;8603254;33;20185;-73
2021/09/19 00:33:31;;;;;;;3.33;2.30;;;;;;;13.21;75.18;100580.53;8602878;33;20280;-74
2021/09/19 00:38:34;;;;;;;2.50;2.30;;;;;;;13.30;75.39;100570.75;8603093;33;20558;-73
2021/09/19 00:43:37;;;;;;;4.22;2.75;;;;;;;13.35;75.02;100563.94;8602771;33;20623;-74
2021/09/19 00:48:41;;;;;;;3.05;2.67;;;;;;;13.36;75.09;100567.53;8602360;33;20451;-74
2021/09/19 00:53:46;;;;;;;5.75;3.05;;;;;;;13.37;74.95;100566.56;8602394;33;20193;-73
2021/09/19 00:58:52;;;;;;;3.50;2.30;;;;;;;13.36;75.19;100568.38;8601348;33;20540;-73
2021/09/19 01:03:57;;;;;;;2.70;2.40;;;;;;;13.35;75.33;100563.09;8602228;33;20879;-74
2021/09/19 01:09:02;;;;;;;3.33;2.67;;;;;;;13.38;75.33;100565.53;8601083;33;20286;-74
2021/09/19 01:14:06;;;;;;;3.05;2.40;;;;;;;13.38;75.51;100569.09;8603065;33;20591;-74
2021/09/19 01:19:17;;;;;;;4.50;2.22;;;;;;;13.39;75.73;100567.28;8601875;33;20185;-73
2021/09/19 01:24:21;;;;;;;3.28;2.53;;;;;;;13.34;75.81;100566.78;8600401;33;20207;-74
2021/09/19 01:29:24;;;;;;;4.28;2.60;;;;;;;13.19;76.29;100567.19;8611252;33;20420;-73
2021/09/19 01:34:28;;;;;;;3.78;2.72;;;;;;;13.11;76.43;100569.72;8609151;33;20153;-73
2021/09/19 01:39:32;;;;;;;2.97;2.67;;;;;;;13.04;77.06;100574.78;8601989;33;20609;-73
2021/09/19 01:44:36;;;;;;;3.13;2.75;;;;;;;13.12;77.21;100573.25;8601025;33;20243;-73
2021/09/19 01:49:46;;;;;;;2.78;2.55;;;;;;;13.22;77.29;100566.91;8599569;33;21653;-73
2021/09/19 01:54:50;;;;;;;3.88;2.67;;;;;;;13.17;77.09;100561.06;8600612;33;20189;-74
2021/09/19 01:59:56;;;;;;;4.53;2.78;;;;;;;13.18;77.27;100560.06;8601716;33;20138;-74
2021/09/19 02:04:59;;;;;;;3.53;2.83;;;;;;;13.21;77.31;100562.47;8601934;33;20259;-73
2021/09/19 02:10:06;;;;;;;2.65;2.30;;;;;;;13.19;77.20;100553.69;8600704;33;21616;-73
2021/09/19 02:15:12;;;;;;;5.32;2.80;;;;;;;13.23;77.47;100548.88;8600219;33;20243;-73
2021/09/19 02:20:16;;;;;;;5.57;2.75;;;;;;;13.23;77.59;100540.78;8599354;33;20207;-73
2021/09/19 02:25:21;;;;;;;3.00;2.70;;;;;;;13.27;77.44;100539.50;8600488;33;20151;-73
2021/09/19 02:30:24;;;;;;;4.22;3.28;;;;;;;13.32;77.19;100536.41;8600843;33;20181;-73
2021/09/19 02:35:27;;;;;;;4.18;2.70;;;;;;;13.38;77.22;100531.31;8600528;33;20666;-74
2021/09/19 02:40:31;;;;;;;4.03;3.08;;;;;;;13.40;76.97;100526.66;8600153;33;20181;-73
2021/09/19 02:45:35;;;;;;;6.80;3.03;;;;;;;13.38;77.06;100539.41;8599971;33;20620;-73
2021/09/19 02:50:38;;;;;;;5.25;3.45;;;;;;;13.40;76.38;100539.28;8600262;33;20921;-73
2021/09/19 02:55:42;;;;;;;4.88;3.50;;;;;;;13.42;75.75;100538.16;8599265;33;20185;-74
2021/09/19 03:00:45;;;;;;;5.45;3.70;;;;;;;13.45;75.50;100524.38;8599642;33;20211;-73
2021/09/19 03:05:48;;;;;;;6.22;3.97;;;;;;;13.44;75.19;100529.94;8599533;33;20189;-73
2021/09/19 03:10:53;;;;;;;5.60;3.83;;;;;;;13.44;75.23;100535.34;8600192;33;20173;-73
2021/09/19 03:15:56;;;;;;;5.70;4.72;;;;;;;13.40;74.73;100515.84;8599144;33;20255;-74
2021/09/19 03:20:59;;;;;;;4.40;3.97;;;;;;;13.41;74.82;100520.28;8599757;33;20257;-74
2021/09/19 03:26:04;;;;;;;4.85;3.50;;;;;;;13.40;74.41;100523.94;8604447;33;20165;-73
2021/09/19 03:31:07;;;;;;;5.40;3.70;;;;;;;13.42;74.33;100519.28;8604926;33;20189;-73
2021/09/19 03:36:10;;;;;;;6.30;3.85;;;;;;;13.42;74.43;100513.88;8603925;33;20608;-73
2021/09/19 03:41:15;;;;;;;4.45;3.30;;;;;;;13.43;74.35;100518.28;8604828;33;20773;-73
2021/09/19 03:46:18;;;;;;;5.13;2.95;;;;;;;13.42;74.35;100524.66;8603311;33;20662;-73
2021/09/19 03:51:21;;;;;;;7.85;3.30;;;;;;;13.44;74.49;100511.91;8603361;33;20220;-73
2021/09/19 03:56:25;;;;;;;5.43;3.22;;;;;;;13.40;74.74;100515.84;8603596;33;20181;-73
2021/09/19 04:01:28;;;;;;;4.22;3.28;;;;;;;13.41;74.62;100525.66;8603382;33;20257;-73
2021/09/19 04:06:32;;;;;;;4.47;3.55;;;;;;;13.41;74.54;100519.41;8603052;33;20216;-74
2021/09/19 04:11:36;;;;;;;6.07;3.17;;;;;;;13.37;75.09;100521.53;8602943;33;20181;-73
2021/09/19 04:16:39;;;;;;;4.05;3.63;;;;;;;13.31;75.54;100527.47;8602628;33;20713;-73
2021/09/19 04:21:42;;;;;;;6.63;3.70;;;;;;;13.27;75.87;100532.28;8601702;33;20185;-74
2021/09/19 04:26:46;;;;;;;9.30;3.83;;;;;;;13.27;76.08;100529.59;8602752;33;20425;-73
2021/09/19 04:31:49;;;;;;;9.05;3.97;;;;;;;13.26;75.99;100529.72;8602716;33;20208;-73
2021/09/19 04:36:53;;;;;;;4.65;3.53;;;;;;;13.25;76.43;100533.41;8601025;33;20697;-73
2021/09/19 04:41:57;;;;;;;9.02;4.68;;;;;;;13.21;76.34;100532.81;8602600;33;20339;-73
2021/09/19 04:47:00;;;;;;;5.82;4.35;;;;;;;13.21;76.13;100532.81;8602806;33;20193;-73
2021/09/19 04:52:04;;;;;;;8.18;5.63;;;;;;;13.15;76.09;100529.81;8602931;33;20181;-73
2021/09/19 04:57:08;;;;;;;6.97;6.03;;;;;;;13.15;75.90;100529.81;8600241;33;20251;-73
2021/09/19 05:02:11;;;;;;;8.65;5.85;;;;;;;13.12;75.85;100530.94;8602229;33;20414;-73
2021/09/19 05:07:18;;;;;;;8.93;5.80;;;;;;;13.12;75.45;100530.09;8601635;33;20273;-73
2021/09/19 05:12:22;;;;;;;7.78;6.35;;;;;;;13.12;75.49;100524.72;8602290;33;20588;-73
2021/09/19 05:17:25;;;;;;;9.57;6.03;;;;;;;13.09;75.59;100533.94;8601403;33;20145;-74
2021/09/19 05:22:28;;;;;;;7.88;5.70;;;;;;;13.11;75.45;100523.88;8602048;33;20138;-73
2021/09/19 05:27:33;;;;;;;8.45;5.90;;;;;;;13.07;75.37;100518.88;8602041;33;20712;-73
2021/09/19 05:32:37;;;;;;;8.10;5.88;;;;;;;13.08;75.31;100523.25;8604891;33;20173;-73
2021/09/19 05:37:40;;;;;;;7.85;6.07;;;;;;;13.09;75.05;100519.59;8603307;33;20196;-74
2021/09/19 05:42:45;;;;;;;7.68;5.65;;;;;;;13.10;75.10;100511.34;8603102;33;20196;-73
2021/09/19 05:47:48;;;;;;;7.68;5.82;;;;;;;13.17;74.81;100514.38;8602202;33;20185;-74
2021/09/19 05:52:51;;;;;;;9.98;6.47;;;;;;;13.20;74.90;100520.34;8600602;33;20185;-73
2021/09/19 05:57:56;;;;;;;10.05;6.38;;;;;;;13.26;74.61;100525.16;8601779;33;20534;-73
2021/09/19 06:02:59;;;;;;;8.75;6.65;;;;;;;13.33;74.39;100536.28;8602438;33;20469;-73
2021/09/19 06:08:02;;;;;;;8.98;5.85;;;;;;;13.52;74.35;100530.09;8601892;33;20181;-73
2021/09/19 06:13:07;;;;;;;8.18;6.05;;;;;;;13.65;73.38;100527.94;8601758;33;20241;-73
2021/09/19 06:18:14;;;;;;;8.20;5.93;;;;;;;13.71;72.93;100530.13;8601600;33;20185;-73
2021/09/19 06:23:17;;;;;;;8.65;5.93;;;;;;;13.85;72.76;100533.34;8601786;33;20172;-73
2021/09/19 06:28:21;;;;;;;8.82;6.03;;;;;;;13.91;72.04;100520.16;8601467;33;20235;-74
2021/09/19 06:33:26;;;;;;;8.40;4.82;;;;;;;14.03;71.65;100523.56;8587252;33;20137;-73
2021/09/19 06:38:29;;;;;;;8.45;5.88;;;;;;;14.11;71.50;100525.53;8582274;33;20246;-75
2021/09/19 06:43:33;;;;;;;8.13;6.18;;;;;;;14.14;71.42;100519.84;8556635;33;20260;-73
2021/09/19 06:48:36;;;;;;;8.35;5.68;;;;;;;14.18;70.83;100523.97;8559816;33;20162;-73
2021/09/19 06:53:39;;;;;;;6.20;5.28;;;;;;;14.16;70.85;100524.09;8558904;33;20154;-74
2021/09/19 06:58:44;;;;;;;8.77;5.55;;;;;;;14.47;69.86;100532.03;8575023;33;20185;-73
2021/09/19 07:03:47;;;;;;;7.45;5.90;;;;;;;14.60;68.85;100531.72;8592281;33;20192;-73
2021/09/19 07:08:51;;;;;;;6.90;5.40;;;;;;;14.83;68.87;100537.63;8599343;33;20157;-74
2021/09/19 07:13:55;;;;;;;8.55;5.63;;;;;;;14.99;68.29;100543.25;8604233;33;20303;-75
2021/09/19 07:18:58;;;;;;;7.45;5.53;;;;;;;15.15;67.73;100537.19;8604389;33;20185;-74
2021/09/19 07:24:01;;;;;;;9.13;5.80;;;;;;;15.35;67.18;100547.94;8605020;33;20193;-74
2021/09/19 07:29:06;;;;;;;7.13;5.57;;;;;;;15.59;66.50;100555.47;8604086;33;20455;-75
2021/09/19 07:34:10;;;;;;;8.35;5.70;;;;;;;15.59;66.10;100541.94;8586268;33;21699;-74
2021/09/19 07:39:14;;;;;;;7.53;5.25;;;;;;;15.75;65.80;100549.41;8606394;33;20414;-74
2021/09/19 07:44:19;;;;;;;7.70;5.18;;;;;;;15.61;65.06;100548.91;8604924;33;20173;-73
2021/09/19 07:49:23;;;;;;;5.47;4.75;;;;;;;15.67;65.29;100545.59;8605106;33;20222;-73
2021/09/19 07:54:26;;;;;;;12.13;5.47;;;;;;;15.75;64.38;100547.53;8605053;33;20268;-72
2021/09/19 07:59:31;;;;;;;8.95;5.03;;;;;;;15.70;63.79;100549.84;8604765;33;20205;-72
2021/09/19 08:04:34;;;;;;;5.70;4.88;;;;;;;15.75;63.48;100544.81;8603523;33;20600;-72
2021/09/19 08:09:37;;;;;;;7.00;5.40;;;;;;;15.60;63.21;100566.16;8603695;33;20565;-73
2021/09/19 08:14:42;;;;;;;5.85;5.00;;;;;;;15.73;63.36;100573.91;8603103;33;20181;-73
2021/09/19 08:19:45;;;;;;;9.10;5.25;;;;;;;15.78;62.84;100578.88;8596606;33;20193;-72
2021/09/19 08:24:48;;;;;;;5.50;4.68;;;;;;;15.90;62.68;100574.91;8605417;33;20204;-72
2021/09/19 08:29:53;;;;;;;5.40;4.57;;;;;;;16.28;61.54;100572.91;8602079;33;20142;-74
2021/09/19 08:34:56;;;;;;;5.82;4.80;;;;;;;16.43;61.34;100575.91;8575746;33;20215;-73
2021/09/19 08:39:59;;;;;;;4.45;4.05;;;;;;;16.21;60.78;100572.69;8581196;33;20268;-74
2021/09/19 08:45:05;;;;;;;4.57;4.10;;;;;;;16.64;59.57;100568.25;8603282;33;20184;-75
2021/09/19 08:50:11;;;;;;;6.95;4.68;;;;;;;17.01;57.95;100569.84;8605096;33;20822;-72
2021/09/19 08:55:14;;;;;;;5.88;4.25;;;;;;;17.05;56.77;100584.78;8604236;33;20169;-73
2021/09/19 09:00:19;;;;;;;7.15;3.85;;;;;;;16.89;56.63;100590.97;8604029;33;20234;-74
2021/09/19 09:05:26;;;;;;;5.20;3.80;;;;;;;16.59;56.23;100576.91;8602167;33;20617;-73
2021/09/19 09:10:33;;;;;;;6.82;4.43;;;;;;;16.98;55.96;100584.59;8603215;33;20210;-73
2021/09/19 09:15:42;;;;;;;5.15;3.80;;;;;;;17.16;55.37;100586.41;8602036;33;21982;-74
2021/09/19 09:20:57;;;;;;;6.38;4.32;;;;;;;16.97;55.16;100587.47;8602560;33;20670;-74
2021/09/19 09:26:18;;;;;;;5.72;3.90;;;;;;;16.75;55.50;100578.00;8602301;33;20427;-73
2021/09/19 09:31:35;;;;;;;4.00;3.60;;;;;;;16.79;55.26;100585.66;8603281;33;20224;-73
2021/09/19 09:36:43;;;;;;;4.10;3.63;;;;;;;16.69;54.48;100587.63;8602535;33;20146;-73
2021/09/19 09:41:57;;;;;;;6.13;3.85;;;;;;;16.41;55.06;100600.47;8854946;27;20552;-74
2021/09/19 09:47:03;;;;;;;4.65;3.55;;;;;;;16.50;55.34;100604.09;8722304;33;20147;-74
2021/09/19 09:52:08;;;;;;;6.35;3.50;;;;;;;16.43;54.66;100617.44;8711664;33;20722;-73
2021/09/19 09:57:21;;;;;;;3.67;3.10;;;;;;;16.38;54.10;100611.66;8704941;33;20632;-73
2021/09/19 10:02:25;;;;;;;6.63;3.40;;;;;;;16.19;54.01;100615.34;8701552;33;20205;-74
2021/09/19 10:07:28;;;;;;;4.30;3.15;;;;;;;16.09;53.92;100619.97;8685880;33;20538;-73
2021/09/19 10:12:33;;;;;;;5.20;3.45;;;;;;;16.21;53.44;100620.59;8675337;33;20537;-74
2021/09/19 10:17:37;;;;;;;4.25;3.03;;;;;;;16.09;53.04;100620.81;8682579;33;20672;-74
2021/09/19 10:22:52;;;;;;;5.68;2.70;;;;;;;15.90;53.13;100610.97;8683207;33;20466;-73
2021/09/19 10:28:27;;;;;;;4.85;3.25;;;;;;;15.89;53.87;100611.16;8680515;33;20312;-73
2021/09/19 10:33:37;;;;;;;4.28;2.88;;;;;;;15.95;52.45;100620.53;8679020;33;20184;-73
2021/09/19 10:38:41;;;;;;;5.88;3.13;;;;;;;15.80;52.19;100620.22;8680229;33;20207;-73
2021/09/19 10:43:54;;;;;;;2.58;2.30;;;;;;;16.04;52.59;100611.44;8680840;33;20184;-73
2021/09/19 10:49:10;;;;;;;4.05;2.90;;;;;;;16.09;52.03;100612.69;8677550;33;20134;-73
2021/09/19 10:54:51;;;;;;;3.22;2.72;;;;;;;15.78;52.17;100612.22;8660231;33;20444;-73
2021/09/19 11:00:19;;;;;;;2.63;2.40;;;;;;;15.89;51.92;100611.16;8660804;33;20180;-74
2021/09/19 11:05:23;;;;;;;3.92;2.85;;;;;;;16.00;52.00;100615.50;8660518;33;20185;-75
2021/09/19 11:10:26;;;;;;;3.70;2.53;;;;;;;16.06;51.95;100610.28;8661220;33;20315;-74
2021/09/19 11:15:31;;;;;;;3.88;2.80;;;;;;;16.01;51.50;100599.06;8660404;33;20513;-74
2021/09/19 11:20:34;;;;;;;2.70;2.50;;;;;;;15.92;51.14;100605.41;8660492;33;20283;-75
2021/09/19 11:25:37;;;;;;;6.43;2.95;;;;;;;16.13;51.48;100597.00;8667828;33;21053;-74
2021/09/19 11:30:42;;;;;;;2.60;2.28;;;;;;;16.04;50.86;100595.19;8659135;33;20602;-74
2021/09/19 11:35:45;;;;;;;4.43;2.70;;;;;;;16.18;51.90;100594.69;8670407;33;20242;-74
2021/09/19 11:40:59;;;;;;;3.85;2.80;;;;;;;16.13;50.92;100605.13;8677953;33;20193;-74
2021/09/19 11:46:08;;;;;;;3.70;2.60;;;;;;;15.72;51.62;100604.72;8660833;33;20677;-74
2021/09/19 11:51:15;;;;;;;4.85;2.60;;;;;;;15.67;52.70;100597.03;8662507;33;20152;-74
2021/09/19 11:56:19;;;;;;;6.00;2.58;;;;;;;15.59;51.91;100609.63;8661971;33;20236;-74
2021/09/19 12:01:27;;;;;;;4.05;2.70;;;;;;;15.64;52.05;100616.31;8660581;33;20738;-74
2021/09/19 12:06:31;;;;;;;4.72;2.40;;;;;;;15.84;51.54;100608.03;8670919;33;21108;-74
2021/09/19 12:11:46;;;;;;;3.85;2.42;;;;;;;15.74;52.02;100604.53;8688048;33;20581;-72
2021/09/19 12:17:03;;;;;;;4.00;2.30;;;;;;;15.98;51.60;100602.09;8664661;33;20234;-73
2021/09/19 12:22:09;;;;;;;3.17;2.58;;;;;;;16.09;50.59;100612.69;8658909;33;20191;-72
2021/09/19 12:27:18;;;;;;;4.40;2.58;;;;;;;16.05;50.31;100610.47;8658799;33;20195;-73
2021/09/19 12:32:22;;;;;;;3.90;2.78;;;;;;;16.32;49.98;100605.00;8659229;33;20188;-73
2021/09/19 12:37:25;;;;;;;3.10;2.15;;;;;;;16.18;49.64;100599.22;8659029;33;20326;-73
2021/09/19 12:42:29;;;;;;;4.30;2.70;;;;;;;16.16;49.69;100596.69;8657688;33;20416;-73
2021/09/19 12:47:34;;;;;;;2.38;2.17;;;;;;;16.06;49.98;100595.91;8658903;33;20181;-73
2021/09/19 12:52:39;;;;;;;4.07;2.47;;;;;;;15.85;50.37;100604.31;8674657;33;20251;-73
2021/09/19 12:57:42;;;;;;;2.90;2.60;;;;;;;16.15;51.01;100595.84;8686647;33;20163;-73
2021/09/19 13:03:00;;;;;;;3.20;2.78;;;;;;;16.03;49.85;100594.34;8687315;33;20614;-73
2021/09/19 13:08:04;;;;;;;4.70;3.33;;;;;;;15.96;51.35;100589.69;8683671;33;20152;-73
2021/09/19 13:13:07;;;;;;;3.75;3.13;;;;;;;15.73;51.37;100583.91;8686704;33;20172;-73
2021/09/19 13:18:13;;;;;;;4.75;2.95;;;;;;;15.85;50.55;100588.94;8685089;33;20749;-73
2021/09/19 13:23:16;;;;;;;3.70;2.28;;;;;;;15.89;51.01;100586.78;8687484;33;20191;-72
2021/09/19 13:28:19;;;;;;;4.03;2.83;;;;;;;15.66;50.93;100583.63;8685815;33;21431;-73
2021/09/19 13:33:23;;;;;;;3.65;3.20;;;;;;;15.84;51.53;100584.50;8688305;33;20175;-73
2021/09/19 13:38:26;;;;;;;4.78;2.92;;;;;;;15.79;50.70;100578.69;8671547;33;20176;-73
2021/09/19 13:43:29;;;;;;;5.55;3.42;;;;;;;15.80;50.86;100566.88;8668849;33;20153;-73
2021/09/19 13:48:34;;;;;;;8.63;3.10;;;;;;;15.55;50.63;100586.56;8658110;33;20230;-72
2021/09/19 13:53:37;;;;;;;5.78;3.15;;;;;;;16.15;50.99;100582.28;8657255;33;20184;-73
2021/09/19 13:58:40;;;;;;;5.13;3.92;;;;;;;16.13;50.29;100570.75;8658104;33;21818;-73
2021/09/19 14:03:44;;;;;;;5.90;3.38;;;;;;;16.19;49.92;100568.41;8656076;33;20188;-73
2021/09/19 14:08:47;;;;;;;3.55;3.25;;;;;;;16.05;49.72;100567.13;8658133;33;20759;-73
2021/09/19 14:13:50;;;;;;;4.00;2.95;;;;;;;16.00;49.74;100573.00;8657633;33;20200;-74
2021/09/19 14:18:55;;;;;;;5.40;3.10;;;;;;;15.66;49.47;100578.22;8657590;33;20141;-74
2021/09/19 14:23:58;;;;;;;4.20;2.95;;;;;;;15.68;49.54;100568.09;8658273;33;20180;-74
2021/09/19 14:29:01;;;;;;;4.88;2.92;;;;;;;15.41;49.77;100586.09;8663076;33;20192;-73
2021/09/19 14:34:06;;;;;;;3.42;2.85;;;;;;;15.29;49.88;100586.41;8662091;33;20459;-73
2021/09/19 14:39:09;;;;;;;4.85;3.30;;;;;;;15.18;49.86;100579.34;8661484;33;20192;-73
2021/09/19 14:44:12;;;;;;;3.88;2.83;;;;;;;15.43;49.85;100564.28;8660191;33;20693;-73
2021/09/19 14:49:17;;;;;;;3.85;3.40;;;;;;;15.39;49.98;100582.69;8661992;33;20330;-73
2021/09/19 14:54:20;;;;;;;3.90;3.30;;;;;;;15.23;50.49;100577.88;8661818;33;20288;-73
2021/09/19 14:59:23;;;;;;;4.63;3.47;;;;;;;15.10;51.18;100582.78;8661291;33;20314;-73
2021/09/19 15:04:27;;;;;;;4.25;2.97;;;;;;;15.11;51.64;100581.81;8661229;33;20673;-74
2021/09/19 15:09:30;;;;;;;3.80;3.20;;;;;;;14.93;51.47;100573.59;8662249;33;20287;-73
2021/09/19 15:14:33;;;;;;;5.28;3.55;;;;;;;14.97;51.95;100566.03;8661241;33;20235;-73
2021/09/19 15:19:37;;;;;;;5.50;3.90;;;;;;;15.00;51.75;100576.53;8661144;33;20203;-73
2021/09/19 15:24:40;;;;;;;5.47;4.18;;;;;;;14.76;51.68;100577.09;8660944;33;20238;-73
2021/09/19 15:29:43;;;;;;;5.97;4.25;;;;;;;14.48;52.46;100581.53;8661195;33;20254;-73
2021/09/19 15:34:48;;;;;;;5.18;3.92;;;;;;;14.54;52.68;100579.13;8660048;33;21454;-73
2021/09/19 15:39:51;;;;;;;5.95;4.22;;;;;;;14.46;52.95;100578.16;8662785;33;20196;-73
2021/09/19 15:44:54;;;;;;;7.30;3.72;;;;;;;14.35;53.45;100584.53;8660703;33;20951;-73
2021/09/19 15:49:59;;;;;;;6.40;4.38;;;;;;;14.34;54.15;100588.22;8659919;33;20612;-73
2021/09/19 15:55:02;;;;;;;5.30;4.03;;;;;;;14.23;54.55;100583.81;8659887;33;20247;-73
2021/09/19 16:00:07;;;;;;;7.10;4.25;;;;;;;14.15;54.52;100586.38;8660276;33;20163;-73
2021/09/19 16:05:14;;;;;;;5.55;4.82;;;;;;;14.04;55.00;100581.13;8659648;33;20621;-73
2021/09/19 16:10:18;;;;;;;15.88;11.55;;;;;;;13.96;54.86;100594.47;8659907;33;20172;-73
2021/09/19 16:15:21;;;;;;;10.85;8.65;;;;;;;13.87;55.46;100585.38;8659282;33;20192;-73
2021/09/19 16:20:25;;;;;;;5.68;3.78;;;;;;;13.70;55.49;100595.88;8659684;33;20188;-73
2021/09/19 16:25:29;;;;;;;5.70;3.70;;;;;;;13.61;56.14;100601.28;8659030;33;20180;-73
2021/09/19 16:30:34;;;;;;;4.85;3.30;;;;;;;13.51;56.25;100600.38;8663248;33;20284;-73
2021/09/19 16:35:40;;;;;;;6.53;3.80;;;;;;;13.38;56.39;100600.63;8685080;33;20191;-72
2021/09/19 16:40:43;;;;;;;4.95;3.30;;;;;;;13.23;56.58;100603.66;8698234;33;20184;-73
2021/09/19 16:45:46;;;;;;;5.05;3.83;;;;;;;13.34;56.75;100608.13;8717145;33;20141;-73
2021/09/19 16:50:51;;;;;;;6.00;3.95;;;;;;;13.24;57.37;100604.53;8716875;33;20182;-73
2021/09/19 16:55:54;;;;;;;3.97;3.42;;;;;;;13.27;56.63;100606.94;8714807;33;20189;-74
2021/09/19 17:00:57;;;;;;;6.05;3.67;;;;;;;13.26;56.99;100606.09;8716876;33;20543;-73
2021/09/19 17:06:02;;;;;;;6.68;3.92;;;;;;;13.20;56.83;100609.34;8707659;33;20188;-73
2021/09/19 17:11:06;;;;;;;5.80;3.88;;;;;;;13.16;56.53;100612.44;8687873;33;20188;-73
2021/09/19 17:16:12;;;;;;;7.05;5.32;;;;;;;13.03;56.88;100618.94;8683332;33;20656;-73
2021/09/19 17:21:16;;;;;;;7.18;4.30;;;;;;;13.08;56.73;100634.69;8685437;33;20559;-73
2021/09/19 17:26:19;;;;;;;5.60;4.15;;;;;;;13.01;56.86;100625.44;8685575;33;20516;-73
2021/09/19 17:31:22;;;;;;;6.35;4.40;;;;;;;12.89;54.71;100630.06;8684217;33;20976;-73
2021/09/19 17:36:27;;;;;;;8.13;5.20;;;;;;;12.92;55.44;100631.66;8689209;33;20602;-73
2021/09/19 17:41:31;;;;;;;6.00;4.15;;;;;;;12.79;55.07;100631.84;8657228;33;20194;-73
2021/09/19 17:46:34;;;;;;;5.95;4.03;;;;;;;12.70;55.34;100636.19;8670801;33;20158;-73
2021/09/19 17:51:39;;;;;;;7.03;4.00;;;;;;;12.80;55.66;100644.34;8698936;33;20230;-73
2021/09/19 17:56:42;;;;;;;5.45;3.95;;;;;;;12.82;56.29;100647.75;8714670;33;20195;-73
2021/09/19 18:01:45;;;;;;;6.30;3.97;;;;;;;12.82;56.95;100656.69;8718403;33;20509;-73
2021/09/19 18:06:50;;;;;;;5.47;4.18;;;;;;;12.76;57.15;100661.78;8720299;33;20175;-73
2021/09/19 18:11:53;;;;;;;6.40;4.32;;;;;;;12.79;57.38;100659.66;8720347;33;20179;-74
2021/09/19 18:16:56;;;;;;;6.00;4.35;;;;;;;12.78;57.78;100665.16;8710408;33;20577;-73
2021/09/19 18:22:00;;;;;;;5.57;4.15;;;;;;;12.73;58.06;100664.72;8719872;33;20187;-74
2021/09/19 18:27:04;;;;;;;5.03;4.05;;;;;;;12.71;57.93;100658.59;8723534;33;20187;-74
2021/09/19 18:32:07;;;;;;;6.07;4.18;;;;;;;12.67;57.90;100649.06;8720187;33;20447;-74
2021/09/19 18:37:12;;;;;;;5.55;4.28;;;;;;;12.63;57.96;100661.97;8720015;33;20464;-74
2021/09/19 18:42:15;;;;;;;6.47;4.03;;;;;;;12.64;58.36;100663.66;8719324;33;20176;-74
2021/09/19 18:47:18;;;;;;;5.47;4.32;;;;;;;12.60;58.35;100671.16;8719747;33;20175;-74
2021/09/19 18:52:22;;;;;;;6.30;4.25;;;;;;;12.62;58.71;100671.03;8688102;33;20184;-74
2021/09/19 18:57:25;;;;;;;5.93;4.20;;;;;;;12.64;59.04;100678.97;8661389;33;20137;-74
2021/09/19 19:02:28;;;;;;;6.13;4.15;;;;;;;12.62;59.49;100680.97;8661877;33;20232;-75
2021/09/19 19:07:34;;;;;;;6.88;4.22;;;;;;;12.56;59.43;100680.50;8661239;33;20767;-74
2021/09/19 19:12:37;;;;;;;8.13;4.53;;;;;;;12.54;59.22;100673.53;8675534;33;20188;-74
2021/09/19 19:17:41;;;;;;;6.40;4.03;;;;;;;12.53;59.17;100683.47;8668396;33;20336;-74
2021/09/19 19:22:45;;;;;;;6.78;3.90;;;;;;;12.53;59.48;100687.97;8687696;33;20191;-74
2021/09/19 19:27:49;;;;;;;5.85;4.40;;;;;;;12.53;59.20;100682.56;8718855;33;22300;-74
2021/09/19 19:32:52;;;;;;;7.13;4.15;;;;;;;12.55;59.84;100686.84;8694230;33;20230;-74
2021/09/19 19:37:56;;;;;;;8.68;4.25;;;;;;;12.54;59.93;100687.84;8660477;33;20231;-74
2021/09/19 19:42:59;;;;;;;5.40;4.15;;;;;;;12.55;60.10;100692.25;8672880;33;20167;-74
2021/09/19 19:48:02;;;;;;;9.35;4.70;;;;;;;12.49;60.63;100698.16;8716960;33;20672;-74
2021/09/19 19:53:07;;;;;;;8.95;4.68;;;;;;;12.45;60.64;100702.13;8691126;33;20157;-74
2021/09/19 19:58:11;;;;;;;6.53;3.83;;;;;;;12.44;60.76;100707.63;8683660;33;20191;-74
2021/09/19 20:03:14;;;;;;;5.93;4.53;;;;;;;12.38;60.73;100690.13;8685258;33;20196;-74
2021/09/19 20:08:19;;;;;;;5.60;4.25;;;;;;;12.34;60.93;100704.81;8682674;33;20183;-74
2021/09/19 20:13:22;;;;;;;5.20;3.92;;;;;;;12.33;60.94;100703.13;8674550;33;20180;-74
2021/09/19 20:18:25;;;;;;;7.72;4.45;;;;;;;12.29;61.09;100696.28;8659392;33;20152;-74
2021/09/19 20:23:30;;;;;;;7.00;4.32;;;;;;;12.27;61.09;100699.06;8659141;33;20141;-74
2021/09/19 20:28:33;;;;;;;8.57;4.40;;;;;;;12.25;61.28;100702.88;8667540;33;20196;-73
2021/09/19 20:33:36;;;;;;;5.45;3.97;;;;;;;12.23;61.46;100692.25;8664974;33;20250;-74
2021/09/19 20:38:40;;;;;;;8.43;4.63;;;;;;;12.22;61.60;100698.59;8718038;33;20196;-73
2021/09/19 20:43:43;;;;;;;6.05;4.20;;;;;;;12.16;61.71;100697.25;8716876;33;20184;-73
2021/09/19 20:48:47;;;;;;;6.55;4.82;;;;;;;12.16;61.66;100710.72;8683453;33;20157;-75
2021/09/19 20:53:51;;;;;;;6.57;4.35;;;;;;;12.17;61.83;100707.03;8688176;33;20187;-73
2021/09/19 20:58:54;;;;;;;7.65;4.90;;;;;;;12.16;62.16;100705.34;8688427;33;20188;-73
2021/09/19 21:03:57;;;;;;;8.02;4.65;;;;;;;12.15;62.27;100700.94;8685163;33;20854;-73
2021/09/19 21:09:03;;;;;;;5.72;4.13;;;;;;;12.16;62.34;100708.03;8687240;33;20239;-73
2021/09/19 21:14:09;;;;;;;8.07;4.93;;;;;;;12.15;62.36;100705.50;8685876;33;20809;-73
2021/09/19 21:19:13;;;;;;;4.88;4.03;;;;;;;12.12;62.69;100717.38;8685089;33;20218;-73
2021/09/19 21:24:17;;;;;;;7.07;4.68;;;;;;;12.07;62.33;100716.88;8687576;33;20191;-73
2021/09/19 21:29:20;;;;;;;8.30;5.03;;;;;;;12.00;62.72;100707.59;8680650;33;20196;-73
2021/09/19 21:34:23;;;;;;;7.97;4.90;;;;;;;11.94;62.91;100708.94;8711348;33;20817;-73
2021/09/19 21:39:28;;;;;;;8.80;4.28;;;;;;;11.93;63.19;100714.47;8715683;33;20167;-73
2021/09/19 21:44:31;;;;;;;7.55;4.53;;;;;;;11.92;63.25;100713.59;8715428;33;20191;-73
2021/09/19 21:49:34;;;;;;;7.53;4.68;;;;;;;11.92;63.14;100723.50;8715010;33;20260;-73
2021/09/19 21:54:38;;;;;;;7.30;4.80;;;;;;;11.95;63.05;100720.56;8713876;33;20633;-73
2021/09/19 21:59:42;;;;;;;7.45;4.45;;;;;;;11.92;63.03;100728.91;8715658;33;20727;-73
2021/09/19 22:04:45;;;;;;;6.90;4.68;;;;;;;11.91;63.20;100729.88;8715213;33;21460;-73
2021/09/19 22:09:52;;;;;;;9.85;4.88;;;;;;;11.88;63.20;100736.38;8715071;33;20156;-74
2021/09/19 22:14:55;;;;;;;7.25;4.97;;;;;;;11.82;63.46;100739.56;8714619;33;20188;-74
2021/09/19 22:19:58;;;;;;;5.95;4.45;;;;;;;11.81;63.88;100743.22;8714891;33;20256;-75
2021/09/19 22:25:05;;;;;;;8.30;5.05;;;;;;;11.82;64.11;100742.25;8714597;33;20750;-75
2021/09/19 22:30:10;;;;;;;7.13;5.15;;;;;;;11.81;64.16;100737.00;8714499;33;20596;-75
2021/09/19 22:35:14;;;;;;;7.38;4.65;;;;;;;11.79;64.19;100739.78;8714073;33;20144;-75
2021/09/19 22:40:19;;;;;;;8.88;5.00;;;;;;;11.79;64.00;100744.31;8714148;33;20684;-74
2021/09/19 22:45:22;;;;;;;8.57;4.95;;;;;;;11.78;64.28;100756.06;8714345;33;20152;-75
2021/09/19 22:50:26;;;;;;;9.25;5.10;;;;;;;11.73;64.11;100753.75;8719217;33;20155;-75
2021/09/19 22:55:31;;;;;;;8.38;5.05;;;;;;;11.68;64.36;100759.53;8718670;33;20211;-75
2021/09/19 23:00:35;;;;;;;7.40;4.65;;;;;;;11.61;64.15;100755.59;8718894;33;20232;-75
2021/09/19 23:05:38;;;;;;;8.50;4.95;;;;;;;11.59;64.33;100751.31;8718793;33;20184;-75
2021/09/19 23:10:42;;;;;;;6.55;5.20;;;;;;;11.55;64.51;100749.84;8718869;33;20298;-75
2021/09/19 23:15:45;;;;;;;9.82;4.72;;;;;;;11.52;64.63;100753.66;8717887;33;20636;-74
2021/09/19 23:20:48;;;;;;;6.93;5.07;;;;;;;11.52;64.31;100753.66;8718454;33;20656;-74
2021/09/19 23:25:53;;;;;;;6.20;4.78;;;;;;;11.54;63.93;100759.72;8717697;33;20797;-75
2021/09/19 23:30:56;;;;;;;5.82;4.25;;;;;;;11.51;63.80;100759.97;8718354;33;20183;-75
2021/09/19 23:35:59;;;;;;;7.03;4.82;;;;;;;11.42;63.89;100766.94;8717892;33;20247;-75